Map

Track Data

SID SEASON NUMBER BASIN SUBBASIN NAME ISO_TIME NATURE LAT LON WMO_WIND WMO_PRES WMO_AGENCY TRACK_TYPE DIST2LAND LANDFALL IFLAG USA_AGENCY USA_ATCF_ID USA_LAT USA_LON USA_RECORD USA_STATUS USA_WIND USA_PRES USA_SSHS USA_R34_NE USA_R34_SE USA_R34_SW USA_R34_NW USA_R50_NE USA_R50_SE USA_R50_SW USA_R50_NW USA_R64_NE USA_R64_SE USA_R64_SW USA_R64_NW USA_POCI USA_ROCI USA_RMW USA_EYE TOKYO_LAT TOKYO_LON TOKYO_GRADE TOKYO_WIND TOKYO_PRES TOKYO_R50_DIR TOKYO_R50_LONG TOKYO_R50_SHORT TOKYO_R30_DIR TOKYO_R30_LONG TOKYO_R30_SHORT TOKYO_LAND CMA_LAT CMA_LON CMA_CAT CMA_WIND CMA_PRES HKO_LAT HKO_LON HKO_CAT HKO_WIND HKO_PRES NEWDELHI_LAT NEWDELHI_LON NEWDELHI_GRADE NEWDELHI_WIND NEWDELHI_PRES NEWDELHI_CI NEWDELHI_DP NEWDELHI_POCI REUNION_LAT REUNION_LON REUNION_TYPE REUNION_WIND REUNION_PRES REUNION_TNUM REUNION_CI REUNION_RMW REUNION_R34_NE REUNION_R34_SE REUNION_R34_SW REUNION_R34_NW REUNION_R50_NE REUNION_R50_SE REUNION_R50_SW REUNION_R50_NW REUNION_R64_NE REUNION_R64_SE REUNION_R64_SW REUNION_R64_NW BOM_LAT BOM_LON BOM_TYPE BOM_WIND BOM_PRES BOM_TNUM BOM_CI BOM_RMW BOM_R34_NE BOM_R34_SE BOM_R34_SW BOM_R34_NW BOM_R50_NE BOM_R50_SE BOM_R50_SW BOM_R50_NW BOM_R64_NE BOM_R64_SE BOM_R64_SW BOM_R64_NW BOM_ROCI BOM_POCI BOM_EYE BOM_POS_METHOD BOM_PRES_METHOD NADI_LAT NADI_LON NADI_CAT NADI_WIND NADI_PRES WELLINGTON_LAT WELLINGTON_LON WELLINGTON_WIND WELLINGTON_PRES DS824_LAT DS824_LON DS824_STAGE DS824_WIND DS824_PRES TD9636_LAT TD9636_LON TD9636_STAGE TD9636_WIND TD9636_PRES TD9635_LAT TD9635_LON TD9635_WIND TD9635_PRES TD9635_ROCI NEUMANN_LAT NEUMANN_LON NEUMANN_CLASS NEUMANN_WIND NEUMANN_PRES MLC_LAT MLC_LON MLC_CLASS MLC_WIND MLC_PRES USA_GUST BOM_GUST BOM_GUST_PER REUNION_GUST REUNION_GUST_PER USA_SEAHGT USA_SEARAD_NE USA_SEARAD_SE USA_SEARAD_SW USA_SEARAD_NW STORM_SPEED STORM_DIR
1936023S19043 1936 4 SI MM NOT_NAMED 1936-01-23 06:00:00 TS -19.4000 43.4000 main 90 83 _________OO___ -1 -19.4000 43.4000 TC 35 -19.4000 43.4000 2 9 155
1936023S19043 1936 4 SI MM NOT_NAMED 1936-01-23 09:00:00 TS -19.8117 43.6049 main 83 45 _________PP___ -1 -19.7950 43.5924 TC 35 -19.8284 43.6175 2 9 154
1936023S19043 1936 4 SI MM NOT_NAMED 1936-01-23 12:00:00 TS -20.2227 43.8193 main 45 10 _________OP___ -1 -20.2000 43.8000 TC 35 -20.2454 43.8385 2 9 153
1936023S19043 1936 4 SI MM NOT_NAMED 1936-01-23 15:00:00 TS -20.6273 44.0502 main 0 0 _________PP___ -1 -20.6150 44.0350 TC 50 -20.6397 44.0653 2 9 150
1936023S19043 1936 4 SI MM NOT_NAMED 1936-01-23 18:00:00 TS -21.0000 44.3000 main 0 0 _________OO___ -1 -21.0000 44.3000 TC 65 -21.0000 44.3000 4 8 145
1936023S19043 1936 4 SI MM NOT_NAMED 1936-01-23 21:00:00 TS -21.3176 44.5698 main 0 0 _________PP___ -1 -21.3150 44.5927 TC 65 -21.3201 44.5470 4 8 139
1936023S19043 1936 4 SI MM NOT_NAMED 1936-01-24 00:00:00 TS -21.6071 44.8596 main 0 0 _________OP___ -1 -21.6000 44.9000 TC 65 -21.6142 44.8191 4 8 137
1936023S19043 1936 4 SI MM NOT_NAMED 1936-01-24 03:00:00 TS -21.8967 45.1510 main 0 0 _________PP___ -1 -21.8922 45.1704 TC 65 -21.9012 45.1316 4 8 135
1936023S19043 1936 4 SI MM NOT_NAMED 1936-01-24 06:00:00 TS -22.2000 45.5000 main 0 0 _________OO___ -1 -22.2000 45.5000 TC 65 -22.2000 45.5000 4 10 131
1936023S19043 1936 4 SI MM NOT_NAMED 1936-01-24 09:00:00 TS -22.5516 45.9659 main 0 0 _________PP___ -1 -22.5426 45.9700 TC 65 -22.5607 45.9617 4 12 128
1936023S19043 1936 4 SI MM NOT_NAMED 1936-01-24 12:00:00 TS -22.9155 46.4880 main 0 0 _________OP___ -1 -22.9000 46.5000 TC 65 -22.9310 46.4759 4 12 127
1936023S19043 1936 4 SI MM NOT_NAMED 1936-01-24 15:00:00 TS -23.2791 47.0124 main 0 0 _________PP___ -1 -23.2725 47.0224 TC 65 -23.2857 47.0024 4 12 126
1936023S19043 1936 4 SI MM NOT_NAMED 1936-01-24 18:00:00 TS -23.6000 47.5000 main 0 0 _________OO___ -1 -23.6000 47.5000 TC 65 -23.6000 47.5000 4 9 124
1936023S19043 1936 4 SI MM NOT_NAMED 1936-01-24 21:00:00 TS -23.7970 47.8560 main 37 37 _________PP___ -1 -23.8222 47.8655 TC 50 -23.7718 47.8466 4 7 120
1936023S19043 1936 4 SI MM NOT_NAMED 1936-01-25 00:00:00 TS -23.9570 48.1837 main 71 71 _________OP___ -1 -24.0000 48.2000 TC 35 -23.9141 48.1673 4 7 118
1936023S19043 1936 4 SI MM NOT_NAMED 1936-01-25 03:00:00 TS -24.1194 48.5315 main 102 102 _________PP___ -1 -24.1393 48.5339 TC 35 -24.0994 48.5291 4 9 121
1936023S19043 1936 4 SI MM NOT_NAMED 1936-01-25 06:00:00 TS -24.4000 49.0000 main 158 158 _________OO___ -1 -24.4000 49.0000 TC 35 -24.4000 49.0000 2 14 127
1936023S19043 1936 4 SI MM NOT_NAMED 1936-01-25 09:00:00 TS -24.9232 49.7228 main 244 244 _________PP___ -1 -24.9329 49.7394 TC 35 -24.9134 49.7062 2 18 130
1936023S19043 1936 4 SI MM NOT_NAMED 1936-01-25 12:00:00 TS -25.5706 50.5634 main 354 354 _________OP___ -1 -25.6000 50.6000 TC 35 -25.5412 50.5268 2 20 131
1936023S19043 1936 4 SI MM NOT_NAMED 1936-01-25 15:00:00 TS -26.2365 51.4074 main 451 451 _________PP___ -1 -26.2500 51.4301 TC 35 -26.2229 51.3848 2 20 132
1936023S19043 1936 4 SI MM NOT_NAMED 1936-01-25 18:00:00 TS -26.9000 52.2000 main 551 551 _________OO___ -1 -26.9000 52.2000 TC 35 -26.9000 52.2000 2 18 135
1936023S19043 1936 4 SI MM NOT_NAMED 1936-01-25 21:00:00 TS -27.5061 52.8244 main 632 632 _________PP___ -1 -27.5143 52.8311 TC 35 -27.4978 52.8176 2 16 138
1936023S19043 1936 4 SI MM NOT_NAMED 1936-01-26 00:00:00 TS -28.0911 53.3921 main 715 715 _________OP___ -1 -28.1000 53.4000 TC 35 -28.0822 53.3841 2 15 139
1936023S19043 1936 4 SI MM NOT_NAMED 1936-01-26 03:00:00 TS -28.6537 53.9611 main 798 798 _________PP___ -1 -28.6567 53.9639 TC 35 -28.6507 53.9583 2 15 136
1936023S19043 1936 4 SI MM NOT_NAMED 1936-01-26 06:00:00 TS -29.2000 54.6000 main 877 877 _________OO___ -1 -29.2000 54.6000 TC 35 -29.2000 54.6000 2 17 131
1936023S19043 1936 4 SI MM NOT_NAMED 1936-01-26 09:00:00 TS -29.7511 55.3909 main 938 938 _________PP___ -1 -29.7650 55.4051 TC 35 -29.7373 55.3767 2 18 127
1936023S19043 1936 4 SI MM NOT_NAMED 1936-01-26 12:00:00 TS -30.2758 56.2658 main 996 996 _________OP___ -1 -30.3000 56.3000 TC 35 -30.2515 56.2317 2 18 123
1936023S19043 1936 4 SI MM NOT_NAMED 1936-01-26 15:00:00 TS -30.7520 57.1624 main 1062 1062 _________PP___ -1 -30.7642 57.1789 TC 35 -30.7398 57.1459 2 18 120
1936023S19043 1936 4 SI MM NOT_NAMED 1936-01-26 18:00:00 TS -31.2000 58.1000 main 1122 1122 _________OO___ -1 -31.2000 58.1000 TC 35 -31.2000 58.1000 2 19 119
1936023S19043 1936 4 SI MM NOT_NAMED 1936-01-26 21:00:00 TS -31.6480 59.0812 main 1190 1190 _________PP___ -1 -31.6646 59.0853 TC 35 -31.6314 59.0771 2 19 117
1936023S19043 1936 4 SI MM NOT_NAMED 1936-01-27 00:00:00 TS -32.0692 60.0857 main 1275 1275 _________OP___ -1 -32.1000 60.1000 TC 35 -32.0383 60.0714 2 19 115
1936023S19043 1936 4 SI MM NOT_NAMED 1936-01-27 03:00:00 TS -32.4487 61.0920 main 1343 1343 _________PP___ -1 -32.4714 61.1039 TC 35 -32.4261 61.0801 2 18 113
1936023S19043 1936 4 SI MM NOT_NAMED 1936-01-27 06:00:00 TS -32.8000 62.1000 main 1425 _________OO___ -1 -32.8000 62.1000 TC 35 -32.8000 62.1000 2 18 113

About IBTrACS Database

This database is a web-friendly format of International Best Track Archive for Climate Stewardship (IBTrACS), a global best track data archive curated by NOAA dating back to 1842.

Updated: 2021-10-25